Time;durP1;ratioP1;P1;durP2;ratioP2;P2;SDS_P1;SDS_P2;PMS_P1;PMS_P2;Temp;Humidity;BMP_temperature;BMP_pressure;BME280_temperature;BME280_humidity;BME280_pressure;Samples;Min_cycle;Max_cycle;Signal;HPM_P1;HPM_P2
2021/12/15 00:00:06;;;;;;;;;;;;;;;;;;;;;
2021/12/15 00:02:58;;;;;;;2.60;1.30;;;;;;;6.15;41.90;93282.50;4964064;28;20051;-89
2021/12/15 00:06:11;;;;;;;;;;;;;;;;;;;;;
2021/12/15 00:09:09;;;;;;;4.22;1.50;;;;;;;6.01;42.66;93294.22;4964178;28;20047;-89
2021/12/15 00:11:54;;;;;;;2.90;1.27;;;;;;;6.11;43.68;93320.38;4962217;28;20038;-89
2021/12/15 00:15:05;;;;;;;2.55;1.27;;;;;;;6.08;42.03;93318.28;4948033;28;20057;-89
2021/12/15 00:17:48;;;;;;;2.55;1.17;;;;;;;6.03;41.08;93277.41;4958248;28;20498;-89
2021/12/15 00:20:55;;;;;;;3.15;1.55;;;;;;;6.10;43.44;93287.59;4955014;29;20046;-89
2021/12/15 00:23:41;;;;;;;4.63;2.10;;;;;;;5.82;45.49;93278.84;4955010;29;20039;-88
2021/12/15 00:26:37;;;;;;;4.63;2.20;;;;;;;5.86;46.58;93318.16;4959323;28;20090;-88
2021/12/15 00:29:22;;;;;;;5.60;2.42;;;;;;;5.56;47.17;93302.84;4948118;28;20480;-89
2021/12/15 00:32:03;;;;;;;5.40;2.58;;;;;;;5.59;47.84;93321.38;4959307;28;20056;-88
2021/12/15 00:35:01;;;;;;;6.15;2.95;;;;;;;5.45;48.28;93324.47;4944654;28;20054;-88
2021/12/15 00:38:11;;;;;;;6.18;2.92;;;;;;;5.21;48.70;93307.22;4970073;28;20043;-88
2021/12/15 00:41:22;;;;;;;7.35;2.97;;;;;;;5.38;49.39;93356.59;4954113;29;20504;-89
2021/12/15 00:44:19;;;;;;;6.35;3.10;;;;;;;4.89;49.94;93287.94;4958267;28;20034;-89
2021/12/15 00:47:01;;;;;;;5.28;2.78;;;;;;;5.09;50.00;93339.41;4928569;28;20155;-89
2021/12/15 00:49:47;;;;;;;5.60;2.40;;;;;;;4.76;50.03;93289.78;4968336;28;20426;-88
2021/12/15 00:52:30;;;;;;;5.47;2.25;;;;;;;5.03;50.19;93328.16;4959262;28;20043;-88
2021/12/15 00:55:24;;;;;;;4.45;2.10;;;;;;;4.78;49.88;93303.31;4963959;28;20027;-88
2021/12/15 00:57:58;;;;;;;4.10;2.00;;;;;;;5.01;49.54;93335.38;4940681;28;20030;-89
2021/12/15 01:00:44;;;;;;;3.83;1.90;;;;;;;4.60;50.10;93280.13;4932367;28;20035;-89
2021/12/15 01:03:15;;;;;;;5.38;1.83;;;;;;;4.83;50.16;93317.41;4945275;28;20054;-88
2021/12/15 01:06:08;;;;;;;;;;;;;;;;;;;;;
2021/12/15 01:08:51;;;;;;;3.40;1.35;;;;;;;4.58;49.30;93282.16;4957338;28;20058;-90
2021/12/15 01:12:34;;;;;;;3.35;1.60;;;;;;;5.06;49.19;93350.25;4969115;28;20043;-89
2021/12/15 01:21:52;;;;;;;;;;;;;;;;;;;;;
2021/12/15 01:24:55;;;;;;;;;;;;;;;;;;;;;
2021/12/15 01:27:48;;;;;;;3.38;1.65;;;;;;;4.98;46.39;93312.50;4957502;28;20050;-89
2021/12/15 01:30:41;;;;;;;4.55;1.70;;;;;;;4.86;46.47;93291.75;4974889;28;20062;-89
2021/12/15 01:33:27;;;;;;;4.00;2.05;;;;;;;4.87;47.16;93297.75;4985636;28;20602;-93
2021/12/15 01:36:10;;;;;;;4.15;2.08;;;;;;;5.27;47.26;93369.59;4995565;28;20051;-96
2021/12/15 01:38:52;;;;;;;4.95;1.75;;;;;;;5.24;47.08;93372.66;4981682;28;20047;-90
2021/12/15 01:48:16;;;;;;;;;;;;;;;;;;;;;
2021/12/15 01:54:18;;;;;;;8.55;2.67;;;;;;;4.84;48.51;93316.38;4975693;28;20093;-89
2021/12/15 01:57:02;;;;;;;5.22;2.50;;;;;;;4.63;48.97;93286.66;4961348;28;20042;-89
2021/12/15 02:00:06;;;;;;;5.40;2.30;;;;;;;4.95;48.86;93342.31;4976611;28;20049;-88
2021/12/15 02:03:00;;;;;;;;;;;;;;;;;;;;;
2021/12/15 02:05:56;;;;;;;;;;;;;;;;;;;;;
2021/12/15 02:08:28;;;;;;;2.42;1.25;;;;;;;5.12;46.97;93329.38;4981175;28;20069;-89
2021/12/15 02:11:16;;;;;;;0.55;0.55;;;;;;;5.15;45.54;93302.94;4966271;28;20438;-89
2021/12/15 02:14:01;;;;;;;6.60;2.20;;;;;;;5.55;45.21;93296.88;4949871;28;20042;-89
2021/12/15 02:16:53;;;;;;;;;;;;;;;;;;;;;
2021/12/15 02:19:35;;;;;;;3.08;1.80;;;;;;;5.72;45.93;93302.09;4978581;28;20054;-89
2021/12/15 02:22:48;;;;;;;16.83;8.15;;;;;;;5.25;56.94;93301.56;4978247;28;20097;-89
2021/12/15 02:28:32;;;;;;;13.38;6.38;;;;;;;4.51;59.88;93294.47;4947168;28;20138;-88
2021/12/15 02:34:44;;;;;;;14.68;7.10;;;;;;;4.38;60.78;93350.72;4944415;28;20053;-88
2021/12/15 02:37:58;;;;;;;16.50;8.60;;;;;;;3.99;60.49;93310.75;4980856;28;20054;-91
2021/12/15 02:40:38;;;;;;;12.05;6.03;;;;;;;4.17;60.43;93343.53;4995286;28;20080;-88
2021/12/15 02:43:36;;;;;;;;;;;;;;;;;;;;;
2021/12/15 02:46:43;;;;;;;6.50;2.88;;;;;;;4.49;53.51;93356.91;4995336;28;20049;-89
2021/12/15 02:49:24;;;;;;;5.78;2.88;;;;;;;4.37;53.38;93336.19;4993107;28;20077;-88
2021/12/15 02:52:12;;;;;;;7.22;3.00;;;;;;;4.43;52.95;93328.50;4978801;28;20046;-88
2021/12/15 02:58:03;;;;;;;5.90;2.70;;;;;;;4.49;53.38;93353.53;4950265;28;20054;-88
2021/12/15 03:00:58;;;;;;;6.85;2.58;;;;;;;4.25;51.50;93301.69;4987981;28;20050;-90
2021/12/15 03:04:13;;;;;;;5.40;2.63;;;;;;;4.35;52.51;93327.06;4984807;28;20529;-89
2021/12/15 03:06:54;;;;;;;8.45;3.42;;;;;;;4.35;53.54;93319.28;4978064;28;20038;-89
2021/12/15 03:15:19;;;;;;;8.25;3.70;;;;;;;4.32;54.23;93315.34;4958786;28;20027;-88
2021/12/15 03:15:49;;;;;;;10.80;5.40;;;;;;;3.95;56.81;93319.97;4965475;28;20634;-89
2021/12/15 03:18:51;;;;;;;12.38;4.95;;;;;;;3.77;57.57;93307.91;4965331;28;20056;-88
2021/12/15 03:21:25;;;;;;;9.05;4.60;;;;;;;3.92;57.74;93341.16;4978150;28;20034;-88
2021/12/15 03:24:36;;;;;;;8.63;4.10;;;;;;;3.68;58.35;93320.38;4948189;28;20085;-88
2021/12/15 03:33:27;;;;;;;8.52;4.32;;;;;;;3.83;57.73;93361.41;4968977;28;20522;-90
2021/12/15 03:39:18;;;;;;;7.82;3.08;;;;;;;3.25;58.73;93318.81;4958239;28;20038;-88
2021/12/15 03:42:36;;;;;;;12.27;5.35;;;;;;;3.71;58.94;93378.69;4974682;28;20539;-89
2021/12/15 03:45:27;;;;;;;;;;;;;;;;;;;;;
2021/12/15 03:48:22;;;;;;;;;;;;;;;;;;;;;
2021/12/15 03:51:12;;;;;;;;;;;;;;;;;;;;;
2021/12/15 03:53:56;;;;;;;12.23;6.55;;;;;;;3.47;60.58;93365.72;4963024;28;20049;-88
2021/12/15 03:56:47;;;;;;;14.23;6.75;;;;;;;3.21;60.88;93325.44;4979383;28;20034;-90
2021/12/15 04:03:10;;;;;;;15.68;6.35;;;;;;;3.63;60.60;93381.63;4984582;28;20061;-88
2021/12/15 04:05:54;;;;;;;11.95;6.10;;;;;;;3.24;61.08;93325.03;4961385;28;20038;-88
2021/12/15 04:08:49;;;;;;;15.20;6.55;;;;;;;3.23;59.61;93325.22;4976927;28;20042;-88
2021/12/15 04:11:32;;;;;;;15.75;5.90;;;;;;;3.27;59.50;93334.13;4961205;28;20038;-88
2021/12/15 04:14:33;;;;;;;;;;;;;;;;;;;;;
2021/12/15 04:17:44;;;;;;;;;;;;;;;;;;;;;
2021/12/15 04:20:45;;;;;;;16.33;6.30;;;;;;;3.20;59.95;93343.75;4994704;28;20038;-88
2021/12/15 04:23:45;;;;;;;15.00;5.53;;;;;;;3.19;59.99;93350.75;4960730;28;20038;-88
2021/12/15 04:27:00;;;;;;;;;;;;;;;;;;;;;
2021/12/15 04:30:11;;;;;;;;;;;;;;;;;;;;;
2021/12/15 04:33:12;;;;;;;;;;;;;;;;;;;;;
2021/12/15 04:36:11;;;;;;;12.18;5.07;;;;;;;3.31;60.55;93387.81;4990763;28;20050;-88
2021/12/15 04:38:53;;;;;;;12.07;5.20;;;;;;;3.49;60.16;93420.63;4960573;28;20066;-88
2021/12/15 04:44:24;;;;;;;11.70;5.20;;;;;;;3.31;60.66;93399.94;4994422;28;20530;-89
2021/12/15 04:47:10;;;;;;;10.07;4.88;;;;;;;3.00;60.98;93362.16;4995093;28;20052;-88
2021/12/15 04:50:11;;;;;;;11.35;5.50;;;;;;;2.94;61.05;93356.03;4963756;28;20290;-89
2021/12/15 04:53:05;;;;;;;11.60;5.03;;;;;;;3.07;61.38;93375.78;4977860;28;20069;-89
2021/12/15 04:56:04;;;;;;;;;;;;;;;;;;;;;
2021/12/15 04:59:20;;;;;;;9.07;4.50;;;;;;;3.29;60.34;93396.81;4989170;28;20046;-88
2021/12/15 05:02:33;;;;;;;;;;;;;;;;;;;;;
2021/12/15 05:05:15;;;;;;;8.57;4.15;;;;;;;2.94;60.76;93361.19;4978582;28;20376;-89
2021/12/15 05:08:06;;;;;;;9.45;4.35;;;;;;;2.90;60.87;93370.41;4974843;28;20098;-88
2021/12/15 05:11:15;;;;;;;14.10;5.13;;;;;;;2.78;60.69;93352.25;4969179;28;20377;-88
2021/12/15 05:13:58;;;;;;;9.07;4.50;;;;;;;3.28;61.22;93437.41;4979306;28;20086;-93
2021/12/15 05:16:51;;;;;;;9.48;4.45;;;;;;;2.76;61.02;93353.47;4998129;28;20089;-94
2021/12/15 05:19:42;;;;;;;10.00;4.60;;;;;;;3.24;61.07;93446.63;5016300;28;20039;-92
2021/12/15 05:22:26;;;;;;;;;;;;;;;;;;;;;
2021/12/15 05:24:54;;;;;;;10.80;4.80;;;;;;;3.04;61.42;93430.53;4995128;28;20637;-86
2021/12/15 05:27:23;;;;;;;10.57;4.75;;;;;;;3.03;61.64;93429.75;4962808;28;20039;-88
2021/12/15 05:30:04;;;;;;;;;;;;;;;;;;;;;
2021/12/15 05:32:38;;;;;;;11.90;4.53;;;;;;;2.73;62.27;93395.28;4997366;28;20495;-87
2021/12/15 05:35:22;;;;;;;7.68;4.25;;;;;;;2.97;61.43;93422.84;4979957;28;20550;-87
2021/12/15 05:38:12;;;;;;;12.63;4.95;;;;;;;2.92;61.24;93407.19;4981140;28;20533;-88
2021/12/15 05:41:00;;;;;;;;;;;;;;;;;;;;;
2021/12/15 05:43:38;;;;;;;9.20;4.25;;;;;;;3.08;62.23;93452.38;4995941;28;20030;-87
2021/12/15 05:46:07;;;;;;;10.95;5.22;;;;;;;2.70;61.99;93410.22;4995360;28;20109;-87
2021/12/15 05:48:46;;;;;;;14.45;5.57;;;;;;;2.62;62.21;93404.53;4994142;28;20035;-87
2021/12/15 05:51:21;;;;;;;12.50;4.88;;;;;;;2.73;62.76;93427.09;4961475;28;20070;-89
2021/12/15 05:54:10;;;;;;;10.75;4.93;;;;;;;2.54;63.40;93407.38;4986003;28;20041;-87
2021/12/15 05:56:39;;;;;;;11.13;4.78;;;;;;;2.45;63.58;93405.06;4995212;28;20129;-87
2021/12/15 05:59:43;;;;;;;12.10;4.85;;;;;;;2.92;63.17;93477.00;4978858;28;20471;-88
2021/12/15 06:02:23;;;;;;;;;;;;;;;;;;;;;
2021/12/15 06:05:31;;;;;;;12.88;4.28;;;;;;;2.41;62.07;93414.28;4977401;28;20098;-88
2021/12/15 06:08:20;;;;;;;10.70;4.80;;;;;;;2.54;62.10;93435.81;4960561;28;20042;-87
2021/12/15 06:11:22;;;;;;;10.32;4.75;;;;;;;2.62;61.79;93451.06;4977423;28;20065;-88
2021/12/15 06:14:12;;;;;;;10.23;5.07;;;;;;;2.39;61.52;93428.41;4956104;29;20109;-87
2021/12/15 06:16:52;;;;;;;9.38;4.50;;;;;;;2.29;62.32;93414.16;4971892;28;20035;-86
2021/12/15 06:19:18;;;;;;;13.45;5.53;;;;;;;2.29;62.30;93426.28;4975670;28;20113;-87
2021/12/15 06:21:44;;;;;;;15.35;5.65;;;;;;;2.26;63.05;93417.19;4975397;28;20524;-86
2021/12/15 06:24:10;;;;;;;11.32;4.90;;;;;;;2.30;63.05;93443.38;4976228;28;20069;-86
2021/12/15 06:26:39;;;;;;;9.75;4.32;;;;;;;2.41;63.60;93468.53;4972288;28;20468;-86
2021/12/15 06:29:04;;;;;;;11.27;5.20;;;;;;;2.09;63.22;93421.28;4936898;28;20046;-86
2021/12/15 06:31:36;;;;;;;11.13;5.18;;;;;;;2.22;63.40;93456.56;4959955;28;20037;-86
2021/12/15 06:34:04;;;;;;;11.70;4.88;;;;;;;2.39;63.42;93480.09;4943531;28;20484;-85
2021/12/15 06:36:33;;;;;;;13.93;5.22;;;;;;;2.44;63.41;93490.59;4943336;28;20069;-85
2021/12/15 06:39:00;;;;;;;10.57;5.53;;;;;;;2.29;63.24;93476.16;4976090;28;20039;-85
2021/12/15 06:41:28;;;;;;;12.15;5.38;;;;;;;2.42;63.78;93498.53;4959666;28;20042;-85
2021/12/15 06:43:58;;;;;;;11.85;5.63;;;;;;;2.44;63.98;93498.34;4959439;28;20047;-86
2021/12/15 06:58:11;;;;;;;12.02;4.95;;;;;;;2.33;63.08;93493.84;4975840;28;20106;-85
2021/12/15 07:00:20;;;;;;;10.18;4.38;;;;;;;2.25;62.87;93481.97;4974172;28;20055;-85
2021/12/15 07:02:46;;;;;;;9.20;4.70;;;;;;;2.36;63.52;93499.38;4996352;28;20065;-85
2021/12/15 07:05:12;;;;;;;9.48;3.78;;;;;;;2.38;63.56;93510.28;4997662;28;20482;-85
2021/12/15 07:07:41;;;;;;;14.80;5.53;;;;;;;2.29;63.65;93488.31;4997532;28;20038;-85
2021/12/15 07:10:09;;;;;;;11.95;5.30;;;;;;;2.45;63.83;93498.09;4997762;28;20038;-85
2021/12/15 07:12:35;;;;;;;12.52;5.82;;;;;;;2.66;64.11;93516.84;4981287;28;20505;-85
2021/12/15 07:15:00;;;;;;;9.65;5.32;;;;;;;2.77;63.88;93515.34;4997129;28;20112;-86
2021/12/15 07:17:29;;;;;;;14.85;5.38;;;;;;;2.83;63.23;93511.91;4997023;28;20041;-86
2021/12/15 07:25:04;;;;;;;16.98;5.30;;;;;;;3.48;61.48;93488.16;4997713;28;20084;-85
2021/12/15 07:27:33;;;;;;;11.15;5.18;;;;;;;4.46;59.69;93523.31;4997001;28;20034;-85
2021/12/15 07:30:00;;;;;;;13.45;5.88;;;;;;;5.15;57.48;93523.56;4981412;28;20038;-85
2021/12/15 07:32:26;;;;;;;11.82;5.53;;;;;;;5.56;56.35;93527.03;5014117;28;20026;-86
2021/12/15 07:34:52;;;;;;;11.77;5.60;;;;;;;5.83;55.04;93523.88;4995806;28;20034;-86
2021/12/15 07:37:18;;;;;;;15.57;6.45;;;;;;;6.10;54.77;93520.78;4979868;28;20037;-86
2021/12/15 07:39:58;;;;;;;14.25;6.07;;;;;;;6.09;53.50;93477.63;4995623;28;20490;-87
2021/12/15 07:42:43;;;;;;;13.80;6.00;;;;;;;6.44;52.27;93480.81;4995456;28;20038;-87
2021/12/15 07:45:14;;;;;;;12.20;5.43;;;;;;;7.02;51.03;93475.41;4995958;28;20467;-86
2021/12/15 07:47:43;;;;;;;14.80;6.22;;;;;;;7.77;49.25;93522.72;4980475;28;20041;-86
2021/12/15 07:50:11;;;;;;;14.02;6.20;;;;;;;8.21;48.41;93525.31;5012098;28;20065;-86
2021/12/15 07:52:40;;;;;;;13.98;6.43;;;;;;;8.26;46.93;93473.16;4995959;28;20034;-86
2021/12/15 07:55:08;;;;;;;14.30;6.70;;;;;;;8.99;46.50;93527.59;4979789;28;20072;-86
2021/12/15 07:57:33;;;;;;;15.65;5.68;;;;;;;9.44;44.28;93534.13;5011030;28;20033;-88
2021/12/15 07:59:59;;;;;;;12.30;5.50;;;;;;;10.03;43.27;93533.09;4978989;28;20050;-88
2021/12/15 08:02:26;;;;;;;13.95;5.97;;;;;;;10.62;42.28;93540.59;5011808;28;20490;-86
2021/12/15 08:04:54;;;;;;;12.57;5.63;;;;;;;11.26;40.61;93534.06;4994977;28;20050;-88
2021/12/15 08:07:22;;;;;;;12.05;5.88;;;;;;;11.73;38.60;93506.66;4996578;28;20045;-88
2021/12/15 08:09:53;;;;;;;17.25;6.60;;;;;;;12.66;36.33;93514.88;4995498;28;20033;-87
2021/12/15 08:12:29;;;;;;;;;;;;;;;;;;;;;
2021/12/15 08:14:55;;;;;;;12.25;5.60;;;;;;;14.83;32.15;93536.03;4995914;28;20038;-88
2021/12/15 08:17:21;;;;;;;16.98;5.30;;;;;;;15.22;30.48;93522.50;4996149;28;20487;-87
2021/12/15 08:19:52;;;;;;;15.80;6.63;;;;;;;16.06;30.51;93518.13;4996014;28;20516;-86
2021/12/15 08:22:23;;;;;;;15.68;5.80;;;;;;;16.40;28.87;93550.16;4981111;28;20046;-87
2021/12/15 08:24:52;;;;;;;14.13;5.90;;;;;;;17.03;27.43;93521.31;4996834;28;20038;-87
2021/12/15 08:27:24;;;;;;;16.95;6.20;;;;;;;17.16;25.86;93496.69;4997446;28;20390;-86
2021/12/15 08:29:50;;;;;;;10.65;5.25;;;;;;;17.21;25.80;93522.22;4976659;28;20479;-87
2021/12/15 08:32:28;;;;;;;12.40;5.63;;;;;;;17.40;25.50;93498.97;4993440;28;20096;-87
2021/12/15 08:34:56;;;;;;;11.07;5.70;;;;;;;17.40;24.91;93498.19;4996591;28;20443;-87
2021/12/15 08:37:22;;;;;;;13.80;6.18;;;;;;;18.29;24.10;93531.59;4996574;28;20076;-87
2021/12/15 08:39:58;;;;;;;19.45;6.10;;;;;;;18.42;23.82;93494.69;4997373;28;20414;-87
2021/12/15 08:42:29;;;;;;;10.27;5.30;;;;;;;18.78;22.18;93497.06;4997284;28;20438;-87
2021/12/15 08:44:58;;;;;;;12.90;5.70;;;;;;;19.31;22.57;93493.25;4997449;28;20042;-87
2021/12/15 08:47:26;;;;;;;11.77;5.68;;;;;;;20.11;21.92;93537.09;4998061;28;20490;-87
2021/12/15 08:50:04;;;;;;;12.60;6.28;;;;;;;19.02;22.94;93536.38;4982389;28;20042;-87
2021/12/15 08:52:35;;;;;;;16.13;7.43;;;;;;;17.81;26.00;93532.38;4999781;28;20069;-87
2021/12/15 08:55:05;;;;;;;12.85;6.40;;;;;;;17.24;27.50;93506.50;5021189;28;20094;-94
2021/12/15 08:57:36;;;;;;;13.80;7.10;;;;;;;16.51;27.03;93507.69;5037438;28;20041;-94
2021/12/15 09:00:16;;;;;;;11.27;5.65;;;;;;;15.87;27.02;93520.84;5037936;28;20022;-91
2021/12/15 09:02:52;;;;;;;10.73;5.55;;;;;;;15.77;28.35;93537.66;5004077;28;20105;-89
2021/12/15 09:05:22;;;;;;;18.00;7.05;;;;;;;16.40;28.64;93515.03;5010988;28;20078;-88
2021/12/15 09:07:58;;;;;;;15.43;6.47;;;;;;;17.24;26.46;93521.63;4995448;28;20037;-87
2021/12/15 09:10:29;;;;;;;13.00;5.65;;;;;;;17.13;24.81;93521.06;4995918;28;20034;-87
2021/12/15 09:13:03;;;;;;;13.57;7.20;;;;;;;17.02;27.81;93543.56;4995932;28;20046;-88
2021/12/15 09:15:29;;;;;;;12.70;6.60;;;;;;;17.23;25.79;93526.13;4979792;28;20034;-88
2021/12/15 09:17:57;;;;;;;17.63;7.90;;;;;;;16.88;27.74;93517.16;4979147;28;20083;-87
2021/12/15 09:20:28;;;;;;;19.25;7.43;;;;;;;17.22;27.75;93526.44;4995587;28;20044;-86
2021/12/15 09:23:01;;;;;;;16.40;7.13;;;;;;;16.79;27.57;93553.31;4995291;28;20088;-87
2021/12/15 09:25:33;;;;;;;14.57;6.72;;;;;;;17.36;27.44;93572.13;4995278;28;20044;-87
2021/12/15 09:28:01;;;;;;;13.15;5.60;;;;;;;16.80;26.45;93526.59;4994880;28;20030;-87
2021/12/15 09:30:34;;;;;;;9.40;3.88;;;;;;;16.55;24.94;93541.13;5013098;28;20061;-89
2021/12/15 09:33:05;;;;;;;10.07;5.03;;;;;;;16.33;26.79;93533.94;4995106;28;20060;-88
2021/12/15 09:35:38;;;;;;;12.68;6.82;;;;;;;16.65;28.70;93534.84;4995527;28;20065;-88
2021/12/15 09:38:07;;;;;;;13.90;6.10;;;;;;;16.94;27.54;93562.81;5012153;28;20029;-88
2021/12/15 09:40:45;;;;;;;;;;;;;;;;;;;;;
2021/12/15 09:43:12;;;;;;;17.45;8.02;;;;;;;12.87;34.38;93534.69;4998851;28;20124;-87
2021/12/15 09:45:49;;;;;;;15.20;7.65;;;;;;;13.05;36.36;93561.38;4998881;28;20054;-86
2021/12/15 10:04:33;;;;;;;16.40;7.90;;;;;;;14.38;33.47;93578.47;4997810;28;20042;-87
2021/12/15 10:18:30;;;;;;;10.35;5.75;;;;;;;12.37;36.70;93590.94;4978428;28;20046;-87
2021/12/15 10:20:57;;;;;;;14.18;7.25;;;;;;;13.26;35.25;93569.88;5002179;28;20125;-89
2021/12/15 10:23:29;;;;;;;14.10;7.85;;;;;;;12.98;36.31;93577.44;4981792;28;20042;-87
2021/12/15 10:25:57;;;;;;;13.15;6.63;;;;;;;12.98;36.39;93603.72;4982498;28;20096;-87
2021/12/15 10:28:29;;;;;;;13.38;6.18;;;;;;;12.86;35.57;93595.41;4982380;28;20038;-87
2021/12/15 10:31:06;;;;;;;15.10;8.23;;;;;;;12.86;36.14;93590.16;4981169;28;20038;-87
2021/12/15 10:33:43;;;;;;;13.35;6.72;;;;;;;12.96;36.46;93581.41;5014494;28;20084;-87
2021/12/15 10:36:15;;;;;;;20.95;8.90;;;;;;;12.10;38.87;93592.09;4981114;28;20479;-88
2021/12/15 10:38:46;;;;;;;;;;;;;;;11.97;37.90;93598.69;4997275;28;20045;-87
2021/12/15 10:41:11;;;;;;;16.90;8.00;;;;;;;12.06;37.98;93591.06;4997086;28;19992;-89
2021/12/15 10:43:47;;;;;;;21.63;8.70;;;;;;;12.90;36.74;93578.03;5013071;28;20479;-88
2021/12/15 10:46:31;;;;;;;13.00;6.32;;;;;;;13.05;36.59;93580.53;4980148;28;20446;-89
2021/12/15 10:49:04;;;;;;;18.98;6.20;;;;;;;13.15;36.38;93568.38;4996504;28;20105;-88
2021/12/15 10:51:32;;;;;;;15.15;7.75;;;;;;;13.44;37.45;93576.31;5013735;28;20038;-87
2021/12/15 10:54:05;;;;;;;18.02;7.28;;;;;;;12.17;38.71;93574.22;4994618;28;20022;-87
2021/12/15 10:56:36;;;;;;;15.50;7.45;;;;;;;12.27;39.62;93576.00;4980070;28;20041;-88
2021/12/15 10:59:07;;;;;;;14.32;6.82;;;;;;;13.12;37.98;93565.25;4995879;28;20491;-88
2021/12/15 11:01:47;;;;;;;11.70;6.30;;;;;;;12.67;36.24;93585.50;4995894;28;20030;-88
2021/12/15 11:04:39;;;;;;;11.25;6.63;;;;;;;11.62;40.09;93586.44;4995252;28;20053;-87
2021/12/15 11:07:05;;;;;;;15.77;7.40;;;;;;;11.58;40.67;93588.78;4971608;28;20531;-88
2021/12/15 11:09:38;;;;;;;17.35;9.05;;;;;;;11.32;42.83;93582.78;5013179;28;20095;-87
2021/12/15 11:12:15;;;;;;;16.45;8.27;;;;;;;10.86;43.71;93572.31;4996315;28;20038;-87
2021/12/15 11:14:48;;;;;;;20.55;8.55;;;;;;;11.06;43.81;93574.16;4995555;28;20084;-87
2021/12/15 11:17:19;;;;;;;15.30;7.93;;;;;;;11.14;42.42;93559.72;4995490;28;20355;-87
2021/12/15 11:20:00;;;;;;;14.65;7.88;;;;;;;10.83;42.62;93575.47;4995078;28;20045;-88
2021/12/15 11:22:37;;;;;;;16.77;7.85;;;;;;;11.74;41.40;93549.41;4994858;28;20041;-90
2021/12/15 11:25:07;;;;;;;15.20;6.82;;;;;;;13.14;36.55;93554.47;4978650;28;20496;-88
2021/12/15 11:27:32;;;;;;;15.68;7.72;;;;;;;12.96;38.55;93555.13;4995019;28;20037;-87
2021/12/15 11:29:58;;;;;;;16.02;7.97;;;;;;;12.89;38.10;93558.84;4994336;28;20045;-87
2021/12/15 11:32:46;;;;;;;13.57;7.05;;;;;;;11.72;39.34;93560.16;4995335;28;20497;-90
2021/12/15 11:35:23;;;;;;;15.60;8.10;;;;;;;11.52;41.63;93568.09;4994728;28;20542;-88
2021/12/15 11:38:03;;;;;;;14.65;8.55;;;;;;;10.56;43.40;93581.69;4978614;28;20034;-88
2021/12/15 11:40:44;;;;;;;15.43;8.20;;;;;;;9.99;44.13;93535.44;4979046;28;20034;-88
2021/12/15 11:43:38;;;;;;;14.45;7.47;;;;;;;10.46;42.91;93537.16;4979370;28;20061;-87
2021/12/15 11:46:43;;;;;;;15.45;7.03;;;;;;;10.96;42.67;93569.69;4994497;28;20503;-90
2021/12/15 11:49:23;;;;;;;16.33;7.88;;;;;;;11.14;41.41;93515.94;4994654;28;20068;-87
2021/12/15 11:52:02;;;;;;;;;;;;;;;;;;;;;
2021/12/15 11:54:53;;;;;;;15.50;7.25;;;;;;;12.06;39.42;93514.94;5012491;28;20507;-89
2021/12/15 11:57:30;;;;;;;13.80;6.60;;;;;;;11.95;38.70;93537.03;4994250;28;20100;-87
2021/12/15 12:00:23;;;;;;;13.90;6.70;;;;;;;11.80;40.02;93562.25;4994673;28;20037;-87
2021/12/15 12:03:10;;;;;;;18.88;7.50;;;;;;;11.41;40.36;93517.50;4994599;28;20054;-87
2021/12/15 12:06:04;;;;;;;15.95;8.40;;;;;;;11.53;40.05;93514.56;5012622;28;20033;-88
2021/12/15 12:09:20;;;;;;;;;;;;;;;;;;;;;
2021/12/15 12:11:55;;;;;;;15.32;7.38;;;;;;;11.72;40.49;93499.06;5010572;28;20042;-89
2021/12/15 12:14:54;;;;;;;12.52;6.50;;;;;;;12.32;38.46;93520.09;5005057;28;20045;-89
2021/12/15 12:17:38;;;;;;;12.15;6.78;;;;;;;11.73;39.97;93517.16;4995276;28;20105;-87
2021/12/15 12:20:32;;;;;;;14.18;7.68;;;;;;;11.75;40.99;93517.66;4995353;28;20038;-88
2021/12/15 12:23:07;;;;;;;20.02;7.97;;;;;;;11.11;42.10;93503.38;4969366;28;20046;-87
2021/12/15 12:26:36;;;;;;;;;;;;;;;;;;;;;
2021/12/15 12:29:23;;;;;;;18.48;7.93;;;;;;;10.61;43.05;93500.53;4993366;28;20041;-88
2021/12/15 12:35:02;;;;;;;13.90;6.82;;;;;;;11.47;40.94;93513.81;4999383;28;20061;-95
2021/12/15 12:37:42;;;;;;;13.15;7.03;;;;;;;11.84;39.59;93507.41;5000944;28;20061;-90
2021/12/15 12:41:02;;;;;;;;;;;;;;;;;;;;;
2021/12/15 12:44:12;;;;;;;12.15;6.13;;;;;;;12.02;38.45;93508.66;4997509;28;20042;-88
2021/12/15 12:47:01;;;;;;;13.47;6.93;;;;;;;11.71;39.65;93497.47;4960584;28;20050;-88
2021/12/15 13:01:24;;;;;;;20.13;7.70;;;;;;;10.92;42.11;93497.91;5012966;28;20038;-88
2021/12/15 13:04:34;;;;;;;9.85;5.93;;;;;;;10.69;40.80;93498.44;4966045;28;20066;-89
2021/12/15 13:07:52;;;;;;;;;;;;;;;;;;;;;
2021/12/15 13:11:05;;;;;;;13.45;6.53;;;;;;;10.46;41.32;93497.09;5007002;28;20049;-89
2021/12/15 13:14:19;;;;;;;12.50;5.75;;;;;;;10.88;40.04;93556.34;5001033;28;20038;-88
2021/12/15 13:17:13;;;;;;;;;;;;;;;;;;;;;
2021/12/15 13:19:58;;;;;;;13.13;6.18;;;;;;;10.41;40.97;93495.28;5016400;28;20040;-88
2021/12/15 13:23:06;;;;;;;11.30;5.68;;;;;;;10.62;40.62;93504.69;4999293;28;20041;-88
2021/12/15 13:28:53;;;;;;;10.82;6.10;;;;;;;10.26;41.03;93503.84;4999543;28;20117;-87
2021/12/15 13:31:45;;;;;;;16.85;6.68;;;;;;;10.49;42.11;93541.88;5017076;28;20046;-87
2021/12/15 13:34:59;;;;;;;12.45;6.38;;;;;;;10.92;40.30;93537.22;5001978;28;20034;-89
2021/12/15 13:37:52;;;;;;;13.55;6.00;;;;;;;11.63;39.49;93562.53;4960434;28;20107;-88
2021/12/15 13:40:54;;;;;;;14.02;6.40;;;;;;;11.70;38.47;93557.03;5000373;28;20045;-88
2021/12/15 13:43:42;;;;;;;11.90;6.18;;;;;;;11.36;39.73;93562.84;4996817;28;20034;-87
2021/12/15 13:46:22;;;;;;;15.07;6.78;;;;;;;10.84;41.12;93548.19;4980041;28;20081;-88
2021/12/15 13:49:13;;;;;;;14.48;6.60;;;;;;;10.54;41.69;93544.50;4998687;28;20030;-87
2021/12/15 13:52:03;;;;;;;16.15;7.28;;;;;;;11.07;41.19;93561.81;4999817;28;20065;-87
2021/12/15 13:54:37;;;;;;;13.77;6.35;;;;;;;11.01;40.46;93556.59;5009603;28;20045;-88
2021/12/15 13:57:12;;;;;;;14.27;6.32;;;;;;;10.94;40.82;93563.13;4982060;28;20033;-90
2021/12/15 13:59:46;;;;;;;13.25;6.68;;;;;;;10.63;41.81;93556.03;5012595;28;20478;-87
2021/12/15 14:02:26;;;;;;;15.30;6.95;;;;;;;10.63;41.54;93537.72;4993849;28;20046;-88
2021/12/15 14:04:53;;;;;;;14.07;7.60;;;;;;;10.94;41.25;93565.75;5016729;28;20046;-87
2021/12/15 14:07:32;;;;;;;15.82;6.70;;;;;;;11.29;41.06;93567.59;5017209;28;20117;-86
2021/12/15 14:10:24;;;;;;;23.25;7.72;;;;;;;11.61;39.92;93563.88;5014290;28;20034;-87
2021/12/15 14:12:57;;;;;;;17.70;7.13;;;;;;;11.25;40.16;93532.47;5003701;28;20049;-88
2021/12/15 14:20:10;;;;;;;16.52;6.85;;;;;;;10.01;42.10;93559.50;5007903;28;20037;-88
2021/12/15 14:23:10;;;;;;;17.40;8.68;;;;;;;9.32;44.01;93513.41;4983243;28;20041;-87
2021/12/15 14:25:56;;;;;;;16.60;6.90;;;;;;;10.03;43.93;93538.31;4994743;28;20042;-88
2021/12/15 14:28:47;;;;;;;;;;;;;;;;;;;;;
2021/12/15 14:31:29;;;;;;;16.77;6.97;;;;;;;10.96;42.04;93582.00;5014198;28;20069;-87
2021/12/15 14:34:45;;;;;;;;;;;;;;;;;;;;;
2021/12/15 14:37:30;;;;;;;;;;;;;;;;;;;;;
2021/12/15 14:40:10;;;;;;;13.35;6.30;;;;;;;10.99;41.06;93569.16;4997938;28;20046;-88
2021/12/15 14:42:51;;;;;;;12.27;6.25;;;;;;;10.20;42.48;93541.53;4997203;28;20038;-87
2021/12/15 14:45:34;;;;;;;15.27;5.85;;;;;;;10.17;43.34;93586.50;4987496;28;20041;-87
2021/12/15 14:48:31;;;;;;;11.02;5.25;;;;;;;9.84;45.54;93574.59;5003223;28;20550;-87
2021/12/15 14:51:04;;;;;;;11.98;5.20;;;;;;;9.63;46.20;93590.16;5013848;28;20038;-87
2021/12/15 14:53:46;;;;;;;12.18;5.43;;;;;;;9.16;46.41;93560.34;5014444;28;20046;-86
2021/12/15 14:56:28;;;;;;;14.10;6.25;;;;;;;8.74;46.97;93532.34;4981294;28;20038;-87
2021/12/15 14:59:03;;;;;;;14.98;6.07;;;;;;;8.50;47.58;93537.09;5014701;28;20345;-88
2021/12/15 15:01:32;;;;;;;13.27;6.10;;;;;;;8.19;47.26;93541.19;4996898;28;20453;-87
2021/12/15 15:04:02;;;;;;;14.68;6.57;;;;;;;8.07;47.67;93535.34;4996170;28;20057;-87
2021/12/15 15:06:31;;;;;;;14.00;6.00;;;;;;;8.23;47.42;93586.63;4996900;28;20061;-86
2021/12/15 15:09:43;;;;;;;;;;;;;;;;;;;;;
2021/12/15 15:12:17;;;;;;;14.20;6.32;;;;;;;8.04;49.09;93599.19;5002270;28;20049;-86
2021/12/15 15:14:54;;;;;;;11.57;5.43;;;;;;;7.94;49.09;93617.31;4991297;28;20044;-86
2021/12/15 15:17:25;;;;;;;12.25;5.75;;;;;;;7.78;49.01;93618.16;4983817;28;20123;-86
2021/12/15 15:20:02;;;;;;;13.02;6.38;;;;;;;7.62;49.73;93614.56;4977967;28;20502;-86
2021/12/15 15:22:32;;;;;;;16.00;6.70;;;;;;;7.46;50.10;93616.16;4978479;28;20435;-86
2021/12/15 15:25:00;;;;;;;10.90;6.40;;;;;;;7.32;50.80;93627.91;5012230;28;20085;-90
2021/12/15 15:27:26;;;;;;;16.42;7.00;;;;;;;7.07;51.21;93603.06;4978122;28;20087;-90